• Join FlightAware (Why Join?)
  • Login
  • US Flag 
05:12PM EDT


 

Airport Tracker/Info


-or-


 

Live Flight TrackerFlight Track Log ✈ N329JB ✈ 23-Apr-2013 ✈ KMCO - MDSD / SDQ

Flight Track Log - Related Links

Times and Time Zones

All times are in EDT time to prevent confusion due to time zone crossing. See the N329JB flight status page for this flight to view local times or setup timezone preferences in your user account.

Time Position Orientation Groundspeed Altitude Reporting Facility
EDT Latitude Longitude Course Direction KTS MPH feet Rate Location/Type
01:56PM 28.4500 -81.3167 139° Southeast 151 174 800  Level Orlando TRACON
01:57PM 28.4833 -81.2833 41° Northeast 190 219 2,200 2,040 Climbing Orlando TRACON
01:58PM 28.5000 -81.2167 74° East 240 276 5,200 2,280 Climbing Orlando TRACON
02:00PM 28.0896 -80.8614 129° Southeast  Level Estimated
02:00PM 28.4844 -81.0889 98° East 274 315 8,600  Level Miami Center
02:01PM 28.0044 -80.7499 139° Southeast  Level Estimated
02:01PM 28.4494 -81.0025 115° Southeast 284 327 10,900  Level Miami Center
02:02PM 28.3981 -80.9086 122° Southeast 317 365 12,700 2,040 Climbing Miami Center
02:03PM 28.3231 -80.8281 137° Southeast 352 405 15,000 2,340 Climbing Miami Center
02:04PM 28.2339 -80.7308 136° Southeast 395 455 17,400 2,040 Climbing Miami Center
02:05PM 28.1506 -80.6431 137° Southeast 405 466 19,100 1,800 Climbing Miami Center
02:06PM 28.0694 -80.5533 136° Southeast 405 466 21,000 1,740 Climbing Miami Center
02:07PM 27.9903 -80.4708 137° Southeast 415 478 22,600 960 Climbing Miami Center
02:08PM 27.9006 -80.3764 137° Southeast 430 495 23,000 300 Climbing Miami Center
02:09PM 27.8111 -80.2867 138° Southeast 435 501 23,300 1,500 Climbing Miami Center
02:10PM 27.7233 -80.1928 137° Southeast 435 501 26,000 1,860 Climbing Miami Center
02:11PM 27.6442 -80.0967 133° Southeast 429 494 27,100 1,020 Climbing Miami Center
02:12PM 27.5672 -79.9889 129° Southeast 429 494 28,100 960 Climbing Miami Center
02:13PM 27.4903 -79.8744 127° Southeast 445 512 29,100 960 Climbing Miami Center
02:14PM 27.4011 -79.7483 129° Southeast 461 531 30,100 960 Climbing Miami Center
02:15PM 27.3156 -79.6314 129° Southeast 470 541 31,100 1,020 Climbing Miami Center
02:16PM 27.2322 -79.5128 128° Southeast 482 555 32,200 1,080 Climbing Miami Center
02:17PM 27.1589 -79.4083 128° Southeast 477 549 33,300 900 Climbing Miami Center
02:18PM 27.0772 -79.2969 129° Southeast 477 549 34,100 660 Climbing Miami Center
02:19PM 26.9978 -79.1808 128° Southeast 471 542 34,700 420 Climbing Miami Center
02:20PM 26.9139 -79.0650 129° Southeast 477 549 35,000 120 Climbing Miami Center
02:21PM 26.8258 -78.9447 129° Southeast 487 560 35,000  Level Miami Center
02:22PM 26.7419 -78.8269 129° Southeast 492 566 35,000  Level Miami Center
02:23PM 26.6536 -78.7047 129° Southeast 492 566 35,000  Level Miami Center
02:24PM 26.5631 -78.5847 130° Southeast 499 574 35,000  Level Miami Center
02:25PM 26.4767 -78.4650 129° Southeast 499 574 35,000  Level Miami Center
02:26PM 26.3881 -78.3478 130° Southeast 499 574 35,000  Level Miami Center
02:27PM 26.3017 -78.2264 128° Southeast 505 581 35,000  Level Miami Center
02:28PM 26.2128 -78.1047 129° Southeast 505 581 35,000  Level Miami Center
02:29PM 26.1261 -77.9836 129° Southeast 505 581 35,000  Level Miami Center
02:30PM 26.0369 -77.8647 130° Southeast 505 581 35,000  Level Miami Center
02:31PM 25.9458 -77.7439 130° Southeast 505 581 35,000  Level Miami Center
02:32PM 25.8589 -77.6231 129° Southeast 505 581 35,000  Level Miami Center
02:33PM 25.7694 -77.5072 131° Southeast 505 581 35,000  Level Miami Center
02:34PM 25.6719 -77.3731 129° Southeast 505 581 35,000  Level Miami Center
02:35PM 25.5803 -77.2528 130° Southeast 505 581 35,000  Level Miami Center
02:36PM 25.4947 -77.1328 128° Southeast 505 581 35,000  Level Miami Center
02:37PM 25.4031 -77.0128 130° Southeast 505 581 35,000 180 Level Miami Center
02:38PM 25.3236 -76.9069 130° Southeast 505 581 35,400 600 Climbing Miami Center
02:39PM 25.2339 -76.7875 130° Southeast 505 581 36,200 600 Climbing Miami Center
02:40PM 25.1458 -76.6728 130° Southeast 500 575 36,700 360 Climbing Miami Center
02:41PM 25.0581 -76.5558 130° Southeast 500 575 37,000 120 Climbing Miami Center
02:42PM 24.9658 -76.4347 130° Southeast 506 582 37,000  Level Miami Center
02:43PM 24.8733 -76.3158 131° Southeast 511 588 37,000  Level Miami Center
02:44PM 24.7831 -76.1972 130° Southeast 511 588 37,000  Level Miami Center
02:45PM 24.6864 -76.0767 131° Southeast 511 588 37,000  Level Miami Center
02:46PM 24.5914 -75.9469 129° Southeast 506 582 37,000  Level Miami Center
02:47PM 24.4967 -75.8267 131° Southeast 512 589 37,000  Level Miami Center
02:48PM 24.4036 -75.7019 129° Southeast 517 595 37,000  Level Miami Center
02:49PM 24.3131 -75.5864 131° Southeast 512 589 37,000  Level Miami Center
02:50PM 24.2178 -75.4644 131° Southeast 512 589 37,000  Level Miami Center
02:51PM 24.1247 -75.3447 130° Southeast 512 589 37,000  Level Miami Center
02:52PM 24.0314 -75.2231 130° Southeast 517 595 37,000  Level Miami Center
02:53PM 23.9361 -75.1014 131° Southeast 522 601 37,000  Level Miami Center
02:54PM 23.8406 -74.9800 131° Southeast 522 601 37,000  Level Miami Center
02:55PM 23.7450 -74.8614 131° Southeast 522 601 37,000  Level Miami Center
02:56PM 23.6533 -74.7403 130° Southeast 522 601 37,000  Level Miami Center
02:57PM 23.5556 -74.6194 131° Southeast 522 601 37,000  Level Miami Center
02:58PM 23.4639 -74.5033 131° Southeast 522 601 37,000  Level Miami Center
02:59PM 23.3658 -74.3831 132° Southeast 522 601 37,000  Level Miami Center
03:00PM 23.2697 -74.2628 131° Southeast 522 601 37,000  Level Miami Center
03:01PM 23.1950 -74.1692 131° Southeast 522 601 37,000  Level Miami Center
03:02PM 23.0925 -74.0406 131° Southeast 517 595 37,000  Level Miami Center
03:03PM 22.9961 -73.9208 131° Southeast 522 601 37,000  Level Miami Center
03:04PM 22.9019 -73.8033 131° Southeast 522 601 37,000  Level Miami Center
03:05PM 22.8053 -73.6842 131° Southeast 522 601 37,000  Level Miami Center
03:06PM 22.7047 -73.5694 134° Southeast 522 601 37,000  Level Miami Center
03:07PM 22.6144 -73.4503 129° Southeast 522 601 37,000  Level Miami Center
03:08PM 22.5178 -73.3358 132° Southeast 522 601 37,000  Level Miami Center
03:09PM 22.4314 -73.2169 128° Southeast 516 594 37,000  Level Miami Center
03:10PM 22.3347 -73.1031 133° Southeast 516 594 37,000  Level Miami Center
03:11PM 22.2400 -72.9847 131° Southeast 516 594 37,000  Level Miami Center
03:12PM 22.1492 -72.8686 130° Southeast 516 594 37,000  Level Miami Center
03:13PM 22.0522 -72.7550 133° Southeast 516 594 37,000  Level Miami Center
03:14PM 21.9594 -72.6414 131° Southeast 516 594 37,000  Level Miami Center
03:15PM 21.8664 -72.5283 132° Southeast 511 588 37,000  Level Miami Center
03:16PM 21.7714 -72.4128 132° Southeast 506 582 37,000  Level Miami Center
03:17PM 21.6761 -72.3000 132° Southeast 506 582 37,000  Level Miami Center
03:18PM 21.5831 -72.1872 132° Southeast 506 582 37,000  Level Miami Center
03:19PM 21.4875 -72.0722 132° Southeast 506 582 37,000  Level Miami Center
03:20PM 21.3944 -71.9597 132° Southeast 506 582 37,000  Level Miami Center
03:21PM 21.3011 -71.8519 133° Southeast 506 582 37,000  Level Miami Center
03:22PM 21.2078 -71.7397 132° Southeast 506 582 37,000  Level Miami Center
03:23PM 21.1142 -71.6253 131° Southeast 506 582 37,000  Level Miami Center
03:24PM 21.0231 -71.5178 132° Southeast 506 582 37,000  Level Miami Center
03:25PM 20.9294 -71.4083 132° Southeast 506 582 37,000  Level Miami Center
03:26PM 20.8381 -71.2989 132° Southeast 506 582 37,000  Level Miami Center
03:27PM 20.7444 -71.1897 133° Southeast 506 582 37,000  Level Miami Center
03:28PM 20.6547 -71.0803 131° Southeast 506 582 37,000  Level Miami Center
03:29PM 20.5611 -70.9692 132° Southeast 506 582 37,000  Level Miami Center
03:30PM 20.4694 -70.8625 133° Southeast 506 582 37,000 -60 Level Miami Center
03:31PM 20.3658 -70.7700 140° Southeast 498 573 36,900 -120 Descending Miami Center
03:33PM 20.1851 -70.7088 164° South  Level FlightAware Approximate
03:40PM 19.4919 -70.2281 128° Southeast  Level FlightAware Approximate
03:41PM 19.4134 -70.1266 129° Southeast  Level FlightAware Approximate
03:42PM 19.3348 -70.0255 129° Southeast  Level FlightAware Approximate
03:43PM 19.2560 -69.9244 130° Southeast  Level FlightAware Approximate
03:44PM 19.1406 -69.8822 164° South  Level FlightAware Approximate
03:45PM 19.0216 -69.8464 164° South  Level FlightAware Approximate
03:46PM 18.9028 -69.8098 164° South  Level FlightAware Approximate
03:47PM 18.7843 -69.7725 162° South  Level FlightAware Approximate
03:48PM 18.6663 -69.7333 180° South  Level FlightAware Approximate
03:49PM 18.5504 -69.6934 169° South  Level FlightAware Approximate
03:50PM 18.4323 -69.6562 159° South  Level FlightAware Approximate
03:51PM 18.4167 -69.6500 159° South  Level FlightAware Approximate
03:52PM 18.4297 -69.6689 159° South  Level Estimated
03:53PM 18.4297 -69.6689 159° South  Level Estimated
03:54PM 18.4297 -69.6689 159° South  Level Estimated
03:55PM 18.4297 -69.6689 159° South  Level Estimated
03:56PM 18.4297 -69.6689 159° South  Level Estimated
03:57PM 18.4297 -69.6689 159° South  Level Estimated
03:58PM 18.4297 -69.6689 159° South  Level Estimated
03:59PM 18.4297 -69.6689 159° South  Level Estimated
04:00PM 18.4297 -69.6689 159° South  Level Estimated